createdAt,value
2023-01-04T00:01:53.869Z,21.31
2023-01-04T00:06:57.375Z,21.26
2023-01-04T00:12:00.163Z,21.21
2023-01-04T00:17:04.339Z,21.16
2023-01-04T00:22:07.156Z,21.10
2023-01-04T00:27:09.946Z,21.06
2023-01-04T00:32:14.307Z,20.99
2023-01-04T00:37:17.116Z,20.96
2023-01-04T00:42:19.964Z,20.90
2023-01-04T00:47:24.091Z,20.85
2023-01-04T00:52:26.902Z,20.81
2023-01-04T00:57:29.682Z,20.76
2023-01-04T01:02:34.089Z,20.70
2023-01-04T01:07:37.006Z,20.65
2023-01-04T01:12:39.812Z,20.61
2023-01-04T01:17:43.987Z,20.57
2023-01-04T01:22:46.793Z,20.51
2023-01-04T01:27:49.546Z,20.46
2023-01-04T01:32:53.715Z,20.43
2023-01-04T01:37:56.622Z,20.37
2023-01-04T01:42:59.369Z,20.32
2023-01-04T01:48:06.266Z,20.27
2023-01-04T01:53:09.177Z,20.24
2023-01-04T01:58:13.771Z,20.20
2023-01-04T02:03:19.412Z,20.13
2023-01-04T02:08:23.666Z,20.10
2023-01-04T02:13:49.502Z,20.06
2023-01-04T02:18:56.389Z,20.00
2023-01-04T02:24:33.725Z,19.96
2023-01-04T02:30:09.473Z,19.93
2023-01-04T02:35:17.648Z,19.90
2023-01-04T02:40:22.243Z,19.83
2023-01-04T02:45:27.999Z,19.83
2023-01-04T02:50:33.537Z,19.81
2023-01-04T02:55:42.958Z,19.79
2023-01-04T03:01:05.065Z,19.77
2023-01-04T03:06:18.728Z,19.74
2023-01-04T03:11:39.017Z,19.71
2023-01-04T03:16:41.830Z,19.69
2023-01-04T03:21:45.969Z,19.64
2023-01-04T03:27:07.235Z,19.65
2023-01-04T03:32:29.085Z,19.63
2023-01-04T03:37:34.528Z,19.61
2023-01-04T03:43:00.996Z,19.61
2023-01-04T03:48:25.215Z,19.57
2023-01-04T03:53:29.409Z,19.56
2023-01-04T03:58:32.255Z,19.55
2023-01-04T04:03:52.608Z,19.52
2023-01-04T04:08:56.800Z,19.53
2023-01-04T04:14:00.135Z,19.53
2023-01-04T04:19:08.140Z,19.51
2023-01-04T04:24:12.840Z,19.50
2023-01-04T04:29:15.623Z,19.49
2023-01-04T04:34:18.338Z,19.48
2023-01-04T04:39:22.568Z,19.46
2023-01-04T04:44:25.486Z,19.45
2023-01-04T04:49:28.244Z,19.41
2023-01-04T04:54:32.444Z,19.40
2023-01-04T04:59:36.255Z,19.38
2023-01-04T05:04:39.060Z,19.35
2023-01-04T05:09:43.254Z,19.35
2023-01-04T05:14:46.024Z,19.33
2023-01-04T05:19:48.930Z,19.31
2023-01-04T05:24:53.019Z,19.29
2023-01-04T05:30:13.447Z,19.29
2023-01-04T05:35:16.307Z,19.27
2023-01-04T05:40:20.486Z,19.26
2023-01-04T05:45:23.615Z,19.26
2023-01-04T05:50:26.353Z,19.25
2023-01-04T05:55:30.463Z,19.23
2023-01-04T06:00:33.296Z,19.21
2023-01-04T06:05:36.119Z,19.20
2023-01-04T06:10:40.228Z,19.19
2023-01-04T06:15:43.475Z,19.18
2023-01-04T06:20:46.299Z,19.18
2023-01-04T06:25:50.460Z,19.16
2023-01-04T06:30:53.244Z,19.16
2023-01-04T06:35:56.110Z,19.15
2023-01-04T06:41:02.852Z,19.15
2023-01-04T06:46:05.920Z,19.13
2023-01-04T06:51:08.712Z,19.12
2023-01-04T06:56:12.859Z,19.12
2023-01-04T07:01:15.791Z,19.11
2023-01-04T07:06:18.706Z,19.12
2023-01-04T07:11:22.956Z,19.11
2023-01-04T07:16:25.813Z,19.10
2023-01-04T07:21:29.883Z,19.10
2023-01-04T07:26:34.331Z,19.07
2023-01-04T07:31:37.156Z,19.06
2023-01-04T07:36:40.392Z,19.06
2023-01-04T07:41:44.497Z,19.04
2023-01-04T07:46:47.308Z,19.01
2023-01-04T07:51:50.758Z,19.02
2023-01-04T07:56:54.848Z,19.00
2023-01-04T08:01:57.728Z,18.99
2023-01-04T08:07:00.576Z,18.99
2023-01-04T08:12:05.095Z,18.97
2023-01-04T08:17:07.896Z,18.97
2023-01-04T08:22:10.719Z,18.97
2023-01-04T08:27:14.899Z,18.96
2023-01-04T08:32:17.658Z,18.96
2023-01-04T08:37:20.573Z,18.94
2023-01-04T08:42:31.189Z,18.94
2023-01-04T08:47:34.599Z,18.95
2023-01-04T08:52:37.376Z,18.94
2023-01-04T08:57:41.513Z,18.92
2023-01-04T09:02:44.359Z,18.92
2023-01-04T09:07:47.258Z,18.91
2023-01-04T09:12:51.373Z,18.89
2023-01-04T09:18:29.456Z,18.89
2023-01-04T09:23:16.932Z,18.88
2023-01-04T09:28:21.079Z,18.88
2023-01-04T09:33:41.316Z,18.87
2023-01-04T09:38:46.634Z,18.84
2023-01-04T09:43:51.943Z,18.83
2023-01-04T09:48:57.545Z,18.25
2023-01-04T09:54:03.545Z,17.68
2023-01-04T09:59:09.911Z,17.57
2023-01-04T10:04:16.547Z,17.46
2023-01-04T10:09:19.460Z,17.77
2023-01-04T10:14:45.330Z,18.17
2023-01-04T10:25:24.731Z,18.75
2023-01-04T10:30:32.800Z,18.89
2023-01-04T10:35:35.570Z,19.02
2023-01-04T10:40:40.264Z,19.12
2023-01-04T10:45:47.188Z,19.17
2023-01-04T10:50:55.122Z,19.23
2023-01-04T10:56:23.925Z,19.23
2023-01-04T11:01:28.014Z,19.24
2023-01-04T11:06:32.219Z,19.24
2023-01-04T11:11:36.359Z,19.23
2023-01-04T11:16:40.873Z,19.23
2023-01-04T11:21:45.420Z,19.14
2023-01-04T11:26:48.301Z,19.21
2023-01-04T11:31:54.799Z,19.21
2023-01-04T11:36:57.646Z,19.23
2023-01-04T11:42:04.007Z,19.21
2023-01-04T11:47:10.270Z,19.19
2023-01-04T11:52:29.480Z,19.19
2023-01-04T11:57:32.223Z,19.18
2023-01-04T12:03:00.053Z,19.22
2023-01-04T12:07:59.261Z,19.21
2023-01-04T12:13:02.454Z,19.20
2023-01-04T12:18:08.701Z,19.21
2023-01-04T12:23:11.999Z,19.24
2023-01-04T12:28:29.911Z,19.23
2023-01-04T12:33:39.346Z,19.27
2023-01-04T12:39:05.543Z,19.28
2023-01-04T12:44:52.073Z,19.27
2023-01-04T12:50:02.821Z,19.30
2023-01-04T12:55:06.174Z,19.28
2023-01-04T13:00:09.872Z,19.29
2023-01-04T13:05:55.530Z,19.31
2023-01-04T13:10:58.049Z,19.26
2023-01-04T13:16:06.158Z,19.28
2023-01-04T13:21:14.584Z,19.26
2023-01-04T13:26:39.053Z,19.36
2023-01-04T13:31:46.013Z,19.32
2023-01-04T13:36:59.689Z,17.94
2023-01-04T13:42:02.428Z,16.38
2023-01-04T13:47:05.729Z,17.33
2023-01-04T13:52:48.339Z,17.91
2023-01-04T13:57:53.677Z,18.28
2023-01-04T14:03:15.332Z,18.57
2023-01-04T14:08:21.992Z,18.78
2023-01-04T14:13:24.835Z,18.95
2023-01-04T14:18:28.631Z,19.07
2023-01-04T14:23:38.355Z,19.18
2023-01-04T14:28:49.532Z,19.22
2023-01-04T14:33:53.464Z,19.27
2023-01-04T14:39:09.343Z,19.31
2023-01-04T14:44:13.705Z,19.24
2023-01-04T14:49:16.609Z,19.24
2023-01-04T14:54:25.004Z,19.24
2023-01-04T14:59:28.707Z,19.24
2023-01-04T15:04:31.578Z,19.24
2023-01-04T15:09:37.182Z,19.25
2023-01-04T15:14:39.974Z,19.24
2023-01-04T15:19:42.709Z,19.24
2023-01-04T15:24:46.834Z,19.24
2023-01-04T15:29:49.616Z,19.21
2023-01-04T15:34:52.449Z,19.21
2023-01-04T15:40:01.974Z,19.22
2023-01-04T15:45:06.675Z,19.21
2023-01-04T15:50:10.057Z,19.20
2023-01-04T15:55:14.975Z,19.23
2023-01-04T16:00:18.219Z,19.22
2023-01-04T16:05:21.702Z,19.21
2023-01-04T16:10:25.863Z,19.23
2023-01-04T16:15:28.654Z,19.22
2023-01-04T16:20:31.427Z,19.21
2023-01-04T16:25:35.596Z,19.22
2023-01-04T16:30:38.492Z,19.24
2023-01-04T16:35:41.324Z,19.25
2023-01-04T16:40:45.539Z,19.25
2023-01-04T16:45:48.691Z,19.27
2023-01-04T16:50:51.537Z,19.30
2023-01-04T16:55:55.638Z,19.32
2023-01-04T17:01:05.978Z,19.35
2023-01-04T17:06:10.440Z,19.36
2023-01-04T17:12:04.890Z,19.39
2023-01-04T17:16:38.541Z,19.37
2023-01-04T17:21:41.376Z,19.45
2023-01-04T17:26:45.659Z,19.48
2023-01-04T17:31:48.526Z,19.55
2023-01-04T17:36:51.684Z,19.59
2023-01-04T17:41:55.783Z,19.65
2023-01-04T17:46:58.671Z,19.68
2023-01-04T17:52:01.709Z,19.77
2023-01-04T17:57:05.990Z,19.83
2023-01-04T18:02:10.065Z,19.89
2023-01-04T18:12:22.235Z,20.09
2023-01-04T18:17:25.097Z,20.14
2023-01-04T18:22:27.909Z,20.22
2023-01-04T18:27:32.159Z,20.29
2023-01-04T18:32:34.933Z,20.34
2023-01-04T18:37:37.888Z,20.41
2023-01-04T18:42:41.984Z,20.49
2023-01-04T18:47:47.421Z,20.55
2023-01-04T18:52:50.328Z,20.61
2023-01-04T18:57:54.494Z,20.67
2023-01-04T19:02:58.229Z,20.72
2023-01-04T19:08:01.203Z,20.78
2023-01-04T19:13:05.434Z,20.85
2023-01-04T19:18:08.224Z,20.88
2023-01-04T19:23:10.984Z,20.93
2023-01-04T19:28:15.070Z,20.98
2023-01-04T19:33:17.882Z,21.02
2023-01-04T19:38:20.728Z,21.08
2023-01-04T19:43:24.861Z,21.13
2023-01-04T19:48:27.700Z,21.16
2023-01-04T19:53:30.649Z,21.21
2023-01-04T19:58:34.759Z,21.24
2023-01-04T20:03:37.552Z,21.27
2023-01-04T20:08:40.847Z,21.32
2023-01-04T20:13:45.096Z,21.25
2023-01-04T20:18:48.045Z,21.39
2023-01-04T20:23:50.839Z,21.42
2023-01-04T20:28:54.972Z,21.47
2023-01-04T20:33:57.961Z,21.50
2023-01-04T20:39:02.151Z,21.54
2023-01-04T20:44:06.775Z,21.57
2023-01-04T20:49:09.606Z,21.57
2023-01-04T20:54:12.395Z,21.60
2023-01-04T20:59:16.498Z,21.63
2023-01-04T21:04:19.300Z,21.64
2023-01-04T21:09:22.553Z,21.63
2023-01-04T21:14:27.396Z,21.65
2023-01-04T21:19:30.115Z,21.69
2023-01-04T21:24:33.267Z,21.68
2023-01-04T21:29:37.359Z,21.71
2023-01-04T21:34:40.142Z,21.72
2023-01-04T21:39:42.963Z,21.74
2023-01-04T21:44:47.132Z,21.74
2023-01-04T21:49:50.756Z,21.74
2023-01-04T21:54:53.730Z,21.77
2023-01-04T21:59:57.819Z,21.73
2023-01-04T22:05:00.858Z,21.65
2023-01-04T22:10:03.708Z,21.62
2023-01-04T22:15:09.262Z,21.61
2023-01-04T22:20:12.788Z,21.55
2023-01-04T22:25:15.741Z,21.47
2023-01-04T22:30:20.033Z,21.49
2023-01-04T22:35:22.919Z,21.47
2023-01-04T22:40:26.046Z,21.51
2023-01-04T22:45:30.200Z,21.52
2023-01-04T22:50:33.181Z,21.50
2023-01-04T22:56:08.936Z,21.53
2023-01-04T23:01:00.263Z,21.53
2023-01-04T23:06:05.694Z,20.95
2023-01-04T23:11:08.881Z,21.10
2023-01-04T23:16:15.126Z,21.20
2023-01-04T23:21:18.071Z,21.22
2023-01-04T23:26:21.848Z,21.24
2023-01-04T23:31:27.255Z,21.25
2023-01-04T23:36:31.095Z,21.24
2023-01-04T23:41:53.771Z,21.26
2023-01-04T23:46:58.844Z,21.29
2023-01-04T23:52:01.811Z,21.34
2023-01-04T23:57:04.772Z,21.31
